createdAt,value
2023-06-29T00:03:36.607Z,2.60
2023-06-29T00:08:39.400Z,2.00
2023-06-29T00:13:43.674Z,2.80
2023-06-29T00:18:46.976Z,2.60
2023-06-29T00:23:49.879Z,2.40
2023-06-29T00:28:54.129Z,2.80
2023-06-29T00:33:56.929Z,2.20
2023-06-29T00:39:01.265Z,3.00
2023-06-29T00:44:05.965Z,3.00
2023-06-29T00:49:08.924Z,1.80
2023-06-29T00:54:12.008Z,2.60
2023-06-29T00:59:16.261Z,2.60
2023-06-29T01:04:26.047Z,2.00
2023-06-29T01:09:28.814Z,3.00
2023-06-29T01:14:33.414Z,3.00
2023-06-29T01:19:36.291Z,2.60
2023-06-29T01:24:41.003Z,3.00
2023-06-29T01:29:43.982Z,3.00
2023-06-29T01:34:46.821Z,2.00
2023-06-29T01:39:53.807Z,3.00
2023-06-29T01:44:56.622Z,2.60
2023-06-29T01:50:00.492Z,2.80
2023-06-29T01:55:04.936Z,2.80
2023-06-29T02:00:09.966Z,2.00
2023-06-29T02:05:20.314Z,3.00
2023-06-29T02:10:24.546Z,2.00
2023-06-29T02:15:27.359Z,3.00
2023-06-29T02:20:30.258Z,2.40
2023-06-29T02:25:34.540Z,2.40
2023-06-29T02:30:37.360Z,3.00
2023-06-29T02:35:40.263Z,3.00
2023-06-29T02:40:45.744Z,2.40
2023-06-29T02:45:49.111Z,2.00
2023-06-29T02:50:52.034Z,2.00
2023-06-29T02:55:56.284Z,2.00
2023-06-29T03:00:59.251Z,2.20
2023-06-29T03:06:03.761Z,3.00
2023-06-29T03:11:08.013Z,3.00
2023-06-29T03:16:11.546Z,3.00
2023-06-29T03:21:18.610Z,2.00
2023-06-29T03:26:23.052Z,2.60
2023-06-29T03:31:26.003Z,3.00
2023-06-29T03:36:28.909Z,3.00
2023-06-29T03:41:33.077Z,2.80
2023-06-29T03:46:37.031Z,3.00
2023-06-29T03:51:39.911Z,5.20
2023-06-29T03:56:44.080Z,7.00
2023-06-29T04:01:46.990Z,5.00
2023-06-29T04:06:49.956Z,5.60
2023-06-29T04:11:54.194Z,6.00
2023-06-29T04:16:57.081Z,5.00
2023-06-29T04:22:00.055Z,4.40
2023-06-29T04:27:04.389Z,5.00
2023-06-29T04:32:07.557Z,5.00
2023-06-29T04:37:11.266Z,5.00
2023-06-29T04:42:18.183Z,6.00
2023-06-29T04:47:21.098Z,4.00
2023-06-29T04:52:23.982Z,5.40
2023-06-29T04:57:29.755Z,5.20
2023-06-29T05:02:32.880Z,5.00
2023-06-29T05:07:36.907Z,4.00
2023-06-29T05:12:41.187Z,5.40
2023-06-29T05:17:44.565Z,5.60
2023-06-29T05:22:47.491Z,5.00
2023-06-29T05:27:51.815Z,4.00
2023-06-29T05:32:54.779Z,4.00
2023-06-29T05:37:57.773Z,5.00
2023-06-29T05:43:02.170Z,4.00
2023-06-29T05:48:05.574Z,5.00
2023-06-29T05:53:08.793Z,4.40
2023-06-29T05:58:13.007Z,5.20
2023-06-29T06:03:16.629Z,4.00
2023-06-29T06:08:19.625Z,4.40
2023-06-29T06:13:23.884Z,5.00
2023-06-29T06:18:27.249Z,2.80
2023-06-29T06:23:31.883Z,4.20
2023-06-29T06:28:38.339Z,4.00
2023-06-29T06:33:41.397Z,4.40
2023-06-29T06:38:49.925Z,4.20
2023-06-29T06:43:55.007Z,4.20
2023-06-29T06:48:57.857Z,4.80
2023-06-29T06:54:00.821Z,3.60
2023-06-29T06:59:05.256Z,3.20
2023-06-29T07:04:08.410Z,4.20
2023-06-29T07:09:13.023Z,2.00
2023-06-29T07:14:20.944Z,4.00
2023-06-29T07:24:29.858Z,4.00
2023-06-29T07:29:34.781Z,3.20
2023-06-29T07:34:37.789Z,2.80
2023-06-29T07:39:40.714Z,2.00
2023-06-29T07:44:44.901Z,3.60
2023-06-29T07:49:47.738Z,3.60
2023-06-29T07:54:51.131Z,2.80
2023-06-29T07:59:55.399Z,4.00
2023-06-29T08:10:04.233Z,2.60
2023-06-29T08:15:09.492Z,2.80
2023-06-29T08:20:13.753Z,2.00
2023-06-29T08:25:17.153Z,3.80
2023-06-29T08:30:21.680Z,2.00
2023-06-29T08:35:24.686Z,2.40
2023-06-29T08:40:28.112Z,2.00
2023-06-29T08:45:32.615Z,2.00
2023-06-29T08:50:35.589Z,2.00
2023-06-29T08:55:38.551Z,2.00
2023-06-29T09:00:43.013Z,1.60
2023-06-29T09:05:49.149Z,1.80
2023-06-29T09:10:52.333Z,1.20
2023-06-29T09:15:56.682Z,2.00
2023-06-29T09:20:59.890Z,2.80
2023-06-29T09:26:05.714Z,3.00
2023-06-29T09:31:12.501Z,2.60
2023-06-29T09:36:15.511Z,3.00
2023-06-29T09:41:18.401Z,3.20
2023-06-29T09:46:22.986Z,3.00
2023-06-29T09:51:26.131Z,3.60
2023-06-29T09:56:29.471Z,5.00
2023-06-29T10:01:33.921Z,5.00
2023-06-29T10:06:40.858Z,5.00
2023-06-29T10:11:44.648Z,4.20
2023-06-29T10:16:49.840Z,3.80
2023-06-29T10:21:54.086Z,5.00
2023-06-29T10:26:56.976Z,3.80
2023-06-29T10:32:01.398Z,5.00
2023-06-29T10:37:04.357Z,5.80
2023-06-29T10:42:12.806Z,5.00
2023-06-29T10:47:28.772Z,6.00
2023-06-29T10:52:31.963Z,5.60
2023-06-29T10:57:35.223Z,5.80
2023-06-29T11:02:39.657Z,5.00
2023-06-29T11:07:42.859Z,6.00
2023-06-29T11:12:46.056Z,3.40
2023-06-29T11:17:51.234Z,5.20
2023-06-29T11:22:54.170Z,6.20
2023-06-29T11:27:57.123Z,5.00
2023-06-29T11:33:06.771Z,4.60
2023-06-29T11:38:16.269Z,5.00
2023-06-29T11:43:21.169Z,5.00
2023-06-29T11:48:29.681Z,6.00
2023-06-29T11:53:33.101Z,5.40
2023-06-29T11:58:36.439Z,5.20
2023-06-29T12:03:41.129Z,5.40
2023-06-29T12:08:45.330Z,5.40
2023-06-29T12:13:48.374Z,5.00
2023-06-29T12:18:53.507Z,5.00
2023-06-29T12:23:57.093Z,4.20
2023-06-29T12:29:00.021Z,5.20
2023-06-29T12:34:04.385Z,3.00
2023-06-29T12:39:07.339Z,3.20
2023-06-29T12:44:10.262Z,5.20
2023-06-29T12:49:14.513Z,4.60
2023-06-29T12:54:17.420Z,3.40
2023-06-29T12:59:20.313Z,5.40
2023-06-29T13:04:24.785Z,6.00
2023-06-29T13:09:27.800Z,5.00
2023-06-29T13:14:31.802Z,5.40
2023-06-29T13:19:36.039Z,4.60
2023-06-29T13:24:39.037Z,3.40
2023-06-29T13:29:42.240Z,5.00
2023-06-29T13:34:46.710Z,3.40
2023-06-29T13:39:49.657Z,4.20
2023-06-29T13:44:52.488Z,3.00
2023-06-29T13:49:56.640Z,4.00
2023-06-29T13:54:59.613Z,3.40
2023-06-29T14:00:04.157Z,3.80
2023-06-29T14:05:09.385Z,3.00
2023-06-29T14:10:12.474Z,4.00
2023-06-29T14:15:15.383Z,4.00
2023-06-29T14:20:19.916Z,3.60
2023-06-29T14:25:23.203Z,3.60
2023-06-29T14:30:26.186Z,4.00
2023-06-29T14:35:31.850Z,4.00
2023-06-29T14:40:35.766Z,4.00
2023-06-29T14:45:39.256Z,4.00
2023-06-29T14:50:43.600Z,4.00
2023-06-29T14:55:47.030Z,4.00
2023-06-29T15:00:50.397Z,3.00
2023-06-29T15:05:54.789Z,4.00
2023-06-29T15:10:57.941Z,4.00
2023-06-29T15:16:00.982Z,4.20
2023-06-29T15:21:05.465Z,3.00
2023-06-29T15:26:08.553Z,4.00
2023-06-29T15:31:11.550Z,4.00
2023-06-29T15:36:15.781Z,5.20
2023-06-29T15:41:18.752Z,5.80
2023-06-29T15:46:21.803Z,3.60
2023-06-29T15:51:26.377Z,5.20
2023-06-29T15:56:29.572Z,5.00
2023-06-29T16:01:32.553Z,6.00
2023-06-29T16:06:36.966Z,7.00
2023-06-29T16:11:39.825Z,7.00
2023-06-29T16:16:42.803Z,6.20
2023-06-29T16:21:47.171Z,8.00
2023-06-29T16:26:50.768Z,6.80
2023-06-29T16:31:53.999Z,7.00
2023-06-29T16:36:58.430Z,7.00
2023-06-29T16:42:01.631Z,6.00
2023-06-29T16:47:04.778Z,6.00
2023-06-29T16:52:09.723Z,7.00
2023-06-29T16:57:12.703Z,6.60
2023-06-29T17:02:15.872Z,6.60
2023-06-29T17:07:20.276Z,6.00
2023-06-29T17:12:23.261Z,6.60
2023-06-29T17:17:26.254Z,6.00
2023-06-29T17:22:30.634Z,4.00
2023-06-29T17:27:33.464Z,6.00
2023-06-29T17:32:36.812Z,6.00
2023-06-29T17:37:42.371Z,6.60
2023-06-29T17:42:45.253Z,6.80
2023-06-29T17:47:48.057Z,6.40
2023-06-29T17:52:55.633Z,5.20
2023-06-29T17:57:59.900Z,6.00
2023-06-29T18:03:03.071Z,4.00
2023-06-29T18:08:08.969Z,6.00
2023-06-29T18:13:16.508Z,6.00
2023-06-29T18:18:22.388Z,4.00
2023-06-29T18:23:35.572Z,6.00
2023-06-29T18:28:45.295Z,6.00
2023-06-29T18:33:48.169Z,6.60
2023-06-29T18:38:52.444Z,5.20
2023-06-29T18:43:55.554Z,6.00
2023-06-29T18:48:58.996Z,6.00
2023-06-29T18:54:03.148Z,6.00
2023-06-29T18:59:08.880Z,7.00
2023-06-29T19:04:11.745Z,4.00
2023-06-29T19:09:16.114Z,5.60
2023-06-29T19:14:19.051Z,4.00
2023-06-29T19:19:21.832Z,4.00
2023-06-29T19:24:26.306Z,5.20
2023-06-29T19:29:29.331Z,6.20
2023-06-29T19:34:33.093Z,4.80
2023-06-29T19:39:37.473Z,5.20
2023-06-29T19:44:40.338Z,4.80
2023-06-29T19:49:43.882Z,6.20
2023-06-29T19:54:48.879Z,3.80
2023-06-29T19:59:51.716Z,4.00
2023-06-29T20:04:54.668Z,5.80
2023-06-29T20:09:58.912Z,5.20
2023-06-29T20:15:01.768Z,4.20
2023-06-29T20:20:05.001Z,4.00
2023-06-29T20:25:10.404Z,5.20
2023-06-29T20:30:13.581Z,5.00
2023-06-29T20:35:16.586Z,4.00
2023-06-29T20:40:21.076Z,4.80
2023-06-29T20:45:25.624Z,4.00
2023-06-29T20:50:28.440Z,4.80
2023-06-29T20:55:32.893Z,4.00
2023-06-29T21:00:36.113Z,4.00
2023-06-29T21:05:38.967Z,5.60
2023-06-29T21:10:43.372Z,4.80
2023-06-29T21:15:46.653Z,4.00
2023-06-29T21:20:50.294Z,4.00
2023-06-29T21:25:55.237Z,4.00
2023-06-29T21:30:58.781Z,4.00
2023-06-29T21:36:02.129Z,4.00
2023-06-29T21:41:06.524Z,5.60
2023-06-29T21:46:09.370Z,4.80
2023-06-29T21:51:12.254Z,4.00
2023-06-29T21:56:25.854Z,5.80
2023-06-29T22:01:29.561Z,4.40
2023-06-29T22:06:32.471Z,4.60
2023-06-29T22:11:39.666Z,4.40
2023-06-29T22:16:44.592Z,4.00
2023-06-29T22:21:47.513Z,4.00
2023-06-29T22:26:51.708Z,6.20
2023-06-29T22:31:54.696Z,4.20
2023-06-29T22:36:57.599Z,6.20
2023-06-29T22:42:01.973Z,6.60
2023-06-29T22:47:05.226Z,6.60
2023-06-29T22:52:08.704Z,4.00
2023-06-29T22:57:12.913Z,7.00
2023-06-29T23:02:15.903Z,5.00
2023-06-29T23:07:19.692Z,7.00
2023-06-29T23:12:27.208Z,5.00
2023-06-29T23:17:30.685Z,5.60
2023-06-29T23:22:35.308Z,5.00
2023-06-29T23:27:42.573Z,5.20
2023-06-29T23:32:50.928Z,5.60
2023-06-29T23:37:53.928Z,5.00
2023-06-29T23:42:58.284Z,5.80
2023-06-29T23:48:01.224Z,5.40
2023-06-29T23:53:04.162Z,6.60
2023-06-29T23:58:09.068Z,5.80
